Terminal Aerodrome Forecast
Issued by NWS

Home | Current Version | Previous Version | Text Only | Print | Product List | Glossary On
Versions: 1 2 3 4 5 6 7 8 9 10 11 12 13 14 15
000
FTPA31 PHFO 301128
TAFHLI
TAF
PHLI 301128Z 3012/0112 06015KT P6SM VCSH SCT020 BKN045
      TEMPO 3013/3017 -SHRA BKN020 BKN035=

USA.gov is the U.S. government's official web portal to all federal, state and local government web resources and services.